Aberdare, United Kingdom
Current Conditions -  °F | °C
As of 12:50 PM on Monday 20 Oct 2014 (Local Time) from EGDX Reporting Station
Broken Clouds Broken Clouds  
Wind Chill: 14°   Ceiling: 4800
Heat Index: 14°   Visibility: 6mi
Dew Point: 11°   Wind: 15mph
Humidity: 82%   Direction: 260°W
Pressure: 29.97"   Gusts: NA
Location:  51.71°N, 3.45°W
Report Text: EGDX 201150Z 26013KT 9999 FEW010 SCT022 BKN048 14/11 Q1015 WHT
Loading
Personal Weather Stations






























Interactive Weather Map
Tropical Storm Tracking
New forecast layout! Learn more

10-Day Weather Forecast

Advertisements
Track Severe Weather on mobile